KRNT - Renton
Updated: Tue, 20-Aug-2019 2:53pm PDT

 Wind from S
Wind: S 9 mph , 15 km/h
Temperature: 81°F , 27°C
Heat Index: 81°F , 27°C
Dew Point: 55°F , 13°C
Humidity: 42%
Barometer: 29.91 inHg , 1012.9 hPa
Visibility: 10 miles , 16 km
2019/08/20 21:53 KRNT 202153Z 17008KT 10SM CLR 27/13 A2991 RMK AO2 SLP132 T02670128
KBFI - Seattle-Boeing
Updated: Tue, 20-Aug-2019 2:53pm PDT

 Wind from S
Wind: S 9 mph , 15 km/h
Temperature: 81°F , 27°C
Dew Point: 54°F , 12°C
Humidity: 39%
Barometer: 29.90 inHg , 1012.5 hPa
Visibility: 10 miles , 16 km
Cloud details: 15000 ft
20000 ft
2019/08/20 21:53 KBFI 202153Z 18008KT 10SM SCT150 BKN200 27/12 A2990 RMK AO2 SLP126 T02720122
 
KSEA - Seattle
Updated: Tue, 20-Aug-2019 2:53pm PDT

 Wind from varies
Wind: varies 6 mph , 9 km/h
Temperature: 79°F , 26°C
Dew Point: 55°F , 13°C
Humidity: 45%
Barometer: 29.93 inHg , 1013.5 hPa
Visibility: 10 miles , 16 km
Cloud details: 20000 ft
25000 ft
2019/08/20 21:53 KSEA 202153Z VRB05KT 10SM SCT200 BKN250 26/13 A2993 RMK AO2 SLP138 T02560128
KSMP - Stampede Pass
Updated: Tue, 20-Aug-2019 2:56pm PDT

 Wind from varies
Wind: varies 6 mph , 9 km/h
Temperature: 73°F , 23°C
Dew Point: 52°F , 11°C
Humidity: 47%
Barometer: 30.05 inHg , 1017.6 hPa
Visibility: 10 miles , 16 km
2019/08/20 21:56 KSMP 202156Z AUTO VRB05KT 10SM CLR 23/11 A3005 RMK AO2 SLP144 T02280111